createdAt,value
2022-11-27T00:01:00.589Z,15.63
2022-11-27T00:11:09.647Z,15.59
2022-11-27T00:21:17.791Z,15.52
2022-11-27T00:31:21.386Z,15.49
2022-11-27T00:41:25.021Z,15.48
2022-11-27T00:51:26.629Z,15.46
2022-11-27T01:01:39.207Z,15.48
2022-11-27T01:11:41.039Z,15.45
2022-11-27T01:21:44.902Z,15.43
2022-11-27T01:31:46.556Z,15.36
2022-11-27T01:41:48.368Z,15.37
2022-11-27T01:51:57.439Z,15.33
2022-11-27T02:01:58.858Z,15.33
2022-11-27T02:12:25.425Z,15.31
2022-11-27T02:22:57.273Z,15.29
2022-11-27T02:32:59.976Z,15.28
2022-11-27T02:43:09.188Z,15.24
2022-11-27T02:53:17.208Z,15.20
2022-11-27T03:03:21.266Z,15.19
2022-11-27T03:13:22.722Z,15.18
2022-11-27T03:23:24.279Z,15.12
2022-11-27T03:33:25.656Z,15.10
2022-11-27T03:43:27.921Z,15.06
2022-11-27T03:53:40.912Z,15.00
2022-11-27T04:03:42.617Z,14.98
2022-11-27T04:13:44.081Z,14.98
2022-11-27T04:23:45.494Z,14.94
2022-11-27T04:33:46.900Z,14.91
2022-11-27T04:43:48.288Z,14.88
2022-11-27T04:53:49.652Z,14.88
2022-11-27T05:03:51.038Z,14.86
2022-11-27T05:14:12.387Z,14.88
2022-11-27T05:24:14.228Z,15.08
2022-11-27T05:34:15.616Z,15.35
2022-11-27T05:44:16.982Z,15.61
2022-11-27T05:54:18.542Z,15.88
2022-11-27T06:04:20.197Z,16.11
2022-11-27T06:14:21.600Z,16.31
2022-11-27T06:24:23.017Z,16.44
2022-11-27T06:34:24.445Z,16.58
2022-11-27T06:44:26.009Z,16.64
2022-11-27T06:54:27.417Z,16.75
2022-11-27T07:04:28.886Z,16.85
2022-11-27T07:14:30.415Z,16.92
2022-11-27T07:24:32.395Z,16.99
2022-11-27T07:34:33.782Z,17.06
2022-11-27T07:44:35.360Z,17.10
2022-11-27T07:54:37.754Z,17.18
2022-11-27T08:04:40.095Z,17.28
2022-11-27T08:14:42.098Z,17.35
2022-11-27T08:24:43.683Z,17.42
2022-11-27T08:34:45.107Z,17.48
2022-11-27T08:44:46.541Z,17.56
2022-11-27T08:54:50.856Z,17.67
2022-11-27T09:04:54.563Z,17.77
2022-11-27T09:14:56.027Z,17.89
2022-11-27T09:25:00.463Z,17.92
2022-11-27T09:35:04.372Z,17.94
2022-11-27T09:45:07.233Z,18.02
2022-11-27T09:55:38.001Z,18.13
2022-11-27T10:05:45.428Z,18.24
2022-11-27T10:15:56.095Z,18.29
2022-11-27T10:26:03.688Z,18.37
2022-11-27T10:36:08.054Z,18.44
2022-11-27T10:46:12.823Z,18.48
2022-11-27T10:56:23.528Z,18.58
2022-11-27T11:06:25.868Z,18.61
2022-11-27T11:16:34.875Z,18.66
2022-11-27T11:26:48.327Z,18.68
2022-11-27T11:37:03.132Z,18.69
2022-11-27T11:47:04.573Z,18.72
2022-11-27T11:57:18.943Z,18.73
2022-11-27T12:07:51.817Z,18.72
2022-11-27T12:18:44.618Z,18.71
2022-11-27T12:28:58.974Z,18.68
2022-11-27T12:39:13.474Z,18.74
2022-11-27T12:49:21.898Z,18.73
2022-11-27T12:59:47.702Z,18.70
2022-11-27T13:10:20.370Z,18.73
2022-11-27T13:20:24.375Z,18.68
2022-11-27T13:30:27.305Z,18.54
2022-11-27T13:40:33.136Z,18.39
2022-11-27T13:50:42.883Z,18.32
2022-11-27T14:00:45.042Z,18.19
2022-11-27T14:10:51.948Z,18.13
2022-11-27T14:20:55.583Z,18.03
2022-11-27T14:30:58.261Z,17.95
2022-11-27T14:41:16.927Z,17.89
2022-11-27T14:51:19.295Z,17.80
2022-11-27T15:01:30.580Z,17.73
2022-11-27T15:11:54.542Z,17.66
2022-11-27T15:21:53.324Z,17.60
2022-11-27T15:31:54.920Z,17.50
2022-11-27T15:42:00.520Z,17.45
2022-11-27T15:52:02.042Z,17.38
2022-11-27T16:02:03.518Z,17.25
2022-11-27T16:12:05.229Z,17.19
2022-11-27T16:22:06.610Z,17.10
2022-11-27T16:32:08.144Z,17.04
2022-11-27T16:42:09.720Z,16.97
2022-11-27T16:52:11.549Z,16.90
2022-11-27T17:02:12.984Z,16.82
2022-11-27T17:12:14.571Z,16.79
2022-11-27T17:22:16.016Z,16.74
2022-11-27T17:32:18.162Z,16.65
2022-11-27T17:42:22.649Z,16.60
2022-11-27T17:52:24.447Z,16.53
2022-11-27T18:02:26.105Z,16.50
2022-11-27T18:12:27.614Z,16.45
2022-11-27T18:22:29.058Z,16.40
2022-11-27T18:32:30.549Z,16.34
2022-11-27T18:42:32.960Z,16.31
2022-11-27T18:52:34.650Z,16.24
2022-11-27T19:02:36.224Z,16.21
2022-11-27T19:12:37.812Z,16.14
2022-11-27T19:22:39.240Z,16.11
2022-11-27T19:32:40.656Z,16.08
2022-11-27T19:42:42.159Z,16.05
2022-11-27T19:52:44.753Z,16.00
2022-11-27T20:02:46.244Z,15.98
2022-11-27T20:12:47.756Z,15.96
2022-11-27T20:22:50.192Z,15.93
2022-11-27T20:32:54.401Z,15.92
2022-11-27T20:42:55.861Z,15.90
2022-11-27T20:52:57.253Z,15.88
2022-11-27T21:02:58.753Z,15.88
2022-11-27T21:13:00.158Z,15.87
2022-11-27T21:23:01.564Z,15.83
2022-11-27T21:33:02.963Z,15.82
2022-11-27T21:43:04.357Z,15.75
2022-11-27T21:53:05.907Z,15.73
2022-11-27T22:03:07.819Z,15.68
2022-11-27T22:13:09.381Z,15.65
2022-11-27T22:23:10.834Z,15.65
2022-11-27T22:33:12.219Z,15.63
2022-11-27T22:43:13.608Z,15.61
2022-11-27T22:53:15.146Z,15.60
2022-11-27T23:03:16.643Z,15.57
2022-11-27T23:13:18.251Z,15.54
2022-11-27T23:23:19.780Z,15.53
2022-11-27T23:33:21.234Z,15.47
2022-11-27T23:43:24.895Z,15.40
2022-11-27T23:53:27.975Z,15.42
